sensor_id;sensor_type;location;lat;lon;timestamp;P1;durP1;ratioP1;P2;durP2;ratioP2
7289;SDS011;63176;52.678;13.250;2023-07-28T00:00:58;1.07;;;0.90;;
7289;SDS011;63176;52.678;13.250;2023-07-28T00:03:24;1.10;;;0.90;;
7289;SDS011;63176;52.678;13.250;2023-07-28T00:05:49;1.20;;;1.10;;
7289;SDS011;63176;52.678;13.250;2023-07-28T00:08:15;0.80;;;0.80;;
7289;SDS011;63176;52.678;13.250;2023-07-28T00:10:41;1.00;;;1.00;;
7289;SDS011;63176;52.678;13.250;2023-07-28T00:13:07;0.93;;;0.87;;
7289;SDS011;63176;52.678;13.250;2023-07-28T00:15:33;0.90;;;0.77;;
7289;SDS011;63176;52.678;13.250;2023-07-28T00:17:59;5.60;;;0.77;;
7289;SDS011;63176;52.678;13.250;2023-07-28T00:20:26;1.13;;;0.90;;
7289;SDS011;63176;52.678;13.250;2023-07-28T00:22:52;1.60;;;0.77;;
7289;SDS011;63176;52.678;13.250;2023-07-28T00:25:18;1.33;;;0.80;;
7289;SDS011;63176;52.678;13.250;2023-07-28T00:27:44;0.80;;;0.80;;
7289;SDS011;63176;52.678;13.250;2023-07-28T00:30:10;0.70;;;0.60;;
7289;SDS011;63176;52.678;13.250;2023-07-28T00:32:37;4.80;;;0.80;;
7289;SDS011;63176;52.678;13.250;2023-07-28T00:35:03;1.33;;;0.70;;
7289;SDS011;63176;52.678;13.250;2023-07-28T00:37:29;0.97;;;0.97;;
7289;SDS011;63176;52.678;13.250;2023-07-28T00:39:54;1.03;;;0.93;;
7289;SDS011;63176;52.678;13.250;2023-07-28T00:42:20;1.10;;;1.10;;
7289;SDS011;63176;52.678;13.250;2023-07-28T00:44:46;1.60;;;0.90;;
7289;SDS011;63176;52.678;13.250;2023-07-28T00:47:11;3.70;;;2.00;;
7289;SDS011;63176;52.678;13.250;2023-07-28T00:49:37;2.80;;;1.83;;
7289;SDS011;63176;52.678;13.250;2023-07-28T00:52:04;7.20;;;2.30;;
7289;SDS011;63176;52.678;13.250;2023-07-28T00:54:32;3.53;;;2.07;;
7289;SDS011;63176;52.678;13.250;2023-07-28T00:56:58;2.93;;;2.30;;
7289;SDS011;63176;52.678;13.250;2023-07-28T00:59:24;4.07;;;2.10;;
7289;SDS011;63176;52.678;13.250;2023-07-28T01:01:49;4.30;;;2.20;;
7289;SDS011;63176;52.678;13.250;2023-07-28T01:04:15;11.20;;;2.20;;
7289;SDS011;63176;52.678;13.250;2023-07-28T01:09:24;3.27;;;2.57;;
7289;SDS011;63176;52.678;13.250;2023-07-28T01:12:07;2.53;;;2.00;;
7289;SDS011;63176;52.678;13.250;2023-07-28T01:14:36;4.03;;;1.77;;
7289;SDS011;63176;52.678;13.250;2023-07-28T01:17:02;5.77;;;2.47;;
7289;SDS011;63176;52.678;13.250;2023-07-28T01:19:28;4.73;;;2.10;;
7289;SDS011;63176;52.678;13.250;2023-07-28T01:22:00;9.97;;;3.17;;
7289;SDS011;63176;52.678;13.250;2023-07-28T01:24:51;5.10;;;3.17;;
7289;SDS011;63176;52.678;13.250;2023-07-28T01:27:39;5.90;;;2.70;;
7289;SDS011;63176;52.678;13.250;2023-07-28T01:30:07;9.83;;;2.97;;
7289;SDS011;63176;52.678;13.250;2023-07-28T01:32:35;4.27;;;3.00;;
7289;SDS011;63176;52.678;13.250;2023-07-28T01:35:02;6.83;;;3.10;;
7289;SDS011;63176;52.678;13.250;2023-07-28T01:37:28;3.40;;;2.50;;
7289;SDS011;63176;52.678;13.250;2023-07-28T01:39:54;2.93;;;2.10;;
7289;SDS011;63176;52.678;13.250;2023-07-28T01:42:20;4.90;;;2.20;;
7289;SDS011;63176;52.678;13.250;2023-07-28T01:44:45;2.30;;;2.07;;
7289;SDS011;63176;52.678;13.250;2023-07-28T01:47:11;2.23;;;2.03;;
7289;SDS011;63176;52.678;13.250;2023-07-28T01:49:37;11.03;;;2.53;;
7289;SDS011;63176;52.678;13.250;2023-07-28T01:52:02;5.20;;;2.27;;
7289;SDS011;63176;52.678;13.250;2023-07-28T01:54:28;3.30;;;2.30;;
7289;SDS011;63176;52.678;13.250;2023-07-28T01:56:54;2.87;;;2.30;;
7289;SDS011;63176;52.678;13.250;2023-07-28T01:59:20;1.83;;;1.73;;
7289;SDS011;63176;52.678;13.250;2023-07-28T02:01:46;4.70;;;2.30;;
7289;SDS011;63176;52.678;13.250;2023-07-28T02:04:12;4.20;;;2.37;;
7289;SDS011;63176;52.678;13.250;2023-07-28T02:06:38;2.40;;;2.20;;
7289;SDS011;63176;52.678;13.250;2023-07-28T02:09:03;3.23;;;2.50;;
7289;SDS011;63176;52.678;13.250;2023-07-28T02:11:29;3.87;;;2.67;;
7289;SDS011;63176;52.678;13.250;2023-07-28T02:13:55;2.43;;;2.20;;
7289;SDS011;63176;52.678;13.250;2023-07-28T02:16:20;2.17;;;1.93;;
7289;SDS011;63176;52.678;13.250;2023-07-28T02:18:46;5.07;;;2.60;;
7289;SDS011;63176;52.678;13.250;2023-07-28T02:21:12;2.57;;;1.90;;
7289;SDS011;63176;52.678;13.250;2023-07-28T02:23:38;2.80;;;2.17;;
7289;SDS011;63176;52.678;13.250;2023-07-28T02:26:03;3.10;;;2.10;;
7289;SDS011;63176;52.678;13.250;2023-07-28T02:28:29;2.37;;;2.17;;
7289;SDS011;63176;52.678;13.250;2023-07-28T02:30:55;7.30;;;2.37;;
7289;SDS011;63176;52.678;13.250;2023-07-28T02:33:20;6.10;;;2.70;;
7289;SDS011;63176;52.678;13.250;2023-07-28T02:35:46;2.77;;;2.57;;
7289;SDS011;63176;52.678;13.250;2023-07-28T02:38:11;7.43;;;2.53;;
7289;SDS011;63176;52.678;13.250;2023-07-28T02:40:37;3.20;;;2.63;;
7289;SDS011;63176;52.678;13.250;2023-07-28T02:43:03;3.97;;;2.17;;
7289;SDS011;63176;52.678;13.250;2023-07-28T02:45:29;3.07;;;2.73;;
7289;SDS011;63176;52.678;13.250;2023-07-28T02:47:55;5.50;;;2.87;;
7289;SDS011;63176;52.678;13.250;2023-07-28T02:50:20;4.60;;;2.93;;
7289;SDS011;63176;52.678;13.250;2023-07-28T02:52:46;6.50;;;2.83;;
7289;SDS011;63176;52.678;13.250;2023-07-28T02:55:12;10.33;;;3.67;;
7289;SDS011;63176;52.678;13.250;2023-07-28T02:57:37;7.43;;;2.90;;
7289;SDS011;63176;52.678;13.250;2023-07-28T03:00:04;8.23;;;3.13;;
7289;SDS011;63176;52.678;13.250;2023-07-28T03:02:31;4.80;;;3.57;;
7289;SDS011;63176;52.678;13.250;2023-07-28T03:04:56;4.10;;;3.63;;
7289;SDS011;63176;52.678;13.250;2023-07-28T03:07:22;5.20;;;3.00;;
7289;SDS011;63176;52.678;13.250;2023-07-28T03:09:48;5.70;;;3.73;;
7289;SDS011;63176;52.678;13.250;2023-07-28T03:12:13;3.90;;;3.43;;
7289;SDS011;63176;52.678;13.250;2023-07-28T03:14:39;4.67;;;3.87;;
7289;SDS011;63176;52.678;13.250;2023-07-28T03:17:05;5.30;;;3.50;;
7289;SDS011;63176;52.678;13.250;2023-07-28T03:19:30;8.73;;;4.00;;
7289;SDS011;63176;52.678;13.250;2023-07-28T03:21:56;5.27;;;3.97;;
7289;SDS011;63176;52.678;13.250;2023-07-28T03:24:22;7.50;;;4.30;;
7289;SDS011;63176;52.678;13.250;2023-07-28T03:26:48;6.57;;;4.07;;
7289;SDS011;63176;52.678;13.250;2023-07-28T03:29:13;9.20;;;4.47;;
7289;SDS011;63176;52.678;13.250;2023-07-28T03:31:39;6.23;;;4.73;;
7289;SDS011;63176;52.678;13.250;2023-07-28T03:34:05;4.90;;;3.80;;
7289;SDS011;63176;52.678;13.250;2023-07-28T03:36:30;6.90;;;4.67;;
7289;SDS011;63176;52.678;13.250;2023-07-28T03:38:56;6.60;;;4.73;;
7289;SDS011;63176;52.678;13.250;2023-07-28T03:41:22;4.77;;;3.97;;
7289;SDS011;63176;52.678;13.250;2023-07-28T03:43:48;6.87;;;4.10;;
7289;SDS011;63176;52.678;13.250;2023-07-28T03:46:13;5.60;;;4.27;;
7289;SDS011;63176;52.678;13.250;2023-07-28T03:48:39;6.63;;;4.40;;
7289;SDS011;63176;52.678;13.250;2023-07-28T03:51:05;4.70;;;4.20;;
7289;SDS011;63176;52.678;13.250;2023-07-28T03:53:30;5.03;;;4.40;;
7289;SDS011;63176;52.678;13.250;2023-07-28T03:56:00;10.77;;;5.57;;
7289;SDS011;63176;52.678;13.250;2023-07-28T03:58:25;4.80;;;4.30;;
7289;SDS011;63176;52.678;13.250;2023-07-28T04:00:52;7.60;;;4.20;;
7289;SDS011;63176;52.678;13.250;2023-07-28T04:03:18;6.70;;;4.47;;
7289;SDS011;63176;52.678;13.250;2023-07-28T04:05:44;4.23;;;3.63;;
7289;SDS011;63176;52.678;13.250;2023-07-28T04:08:10;7.60;;;4.87;;
7289;SDS011;63176;52.678;13.250;2023-07-28T04:10:36;6.77;;;4.73;;
7289;SDS011;63176;52.678;13.250;2023-07-28T04:13:01;6.30;;;4.63;;
7289;SDS011;63176;52.678;13.250;2023-07-28T04:15:27;5.50;;;4.60;;
7289;SDS011;63176;52.678;13.250;2023-07-28T04:17:53;6.20;;;4.63;;
7289;SDS011;63176;52.678;13.250;2023-07-28T04:20:18;6.50;;;4.70;;
7289;SDS011;63176;52.678;13.250;2023-07-28T04:22:44;5.57;;;4.37;;
7289;SDS011;63176;52.678;13.250;2023-07-28T04:25:10;6.13;;;4.40;;
7289;SDS011;63176;52.678;13.250;2023-07-28T04:27:35;10.97;;;5.10;;
7289;SDS011;63176;52.678;13.250;2023-07-28T04:30:01;8.70;;;5.30;;
7289;SDS011;63176;52.678;13.250;2023-07-28T04:32:27;7.60;;;4.70;;
7289;SDS011;63176;52.678;13.250;2023-07-28T04:34:53;8.47;;;5.00;;
7289;SDS011;63176;52.678;13.250;2023-07-28T04:37:18;8.20;;;5.07;;
7289;SDS011;63176;52.678;13.250;2023-07-28T04:39:44;6.03;;;4.87;;
7289;SDS011;63176;52.678;13.250;2023-07-28T04:42:10;7.10;;;5.60;;
7289;SDS011;63176;52.678;13.250;2023-07-28T04:44:37;5.77;;;5.10;;
7289;SDS011;63176;52.678;13.250;2023-07-28T04:47:04;11.77;;;5.07;;
7289;SDS011;63176;52.678;13.250;2023-07-28T04:49:30;8.77;;;5.20;;
7289;SDS011;63176;52.678;13.250;2023-07-28T04:51:56;6.67;;;4.70;;
7289;SDS011;63176;52.678;13.250;2023-07-28T04:54:22;7.20;;;4.30;;
7289;SDS011;63176;52.678;13.250;2023-07-28T04:56:48;6.20;;;4.83;;
7289;SDS011;63176;52.678;13.250;2023-07-28T04:59:16;5.40;;;4.90;;
7289;SDS011;63176;52.678;13.250;2023-07-28T05:01:41;5.70;;;5.03;;
7289;SDS011;63176;52.678;13.250;2023-07-28T05:04:07;8.30;;;4.97;;
7289;SDS011;63176;52.678;13.250;2023-07-28T05:06:33;6.40;;;4.70;;
7289;SDS011;63176;52.678;13.250;2023-07-28T05:08:58;8.20;;;5.00;;
7289;SDS011;63176;52.678;13.250;2023-07-28T05:11:24;6.03;;;4.70;;
7289;SDS011;63176;52.678;13.250;2023-07-28T05:13:50;6.90;;;4.73;;
7289;SDS011;63176;52.678;13.250;2023-07-28T05:16:15;4.90;;;4.40;;
7289;SDS011;63176;52.678;13.250;2023-07-28T05:18:41;11.43;;;4.60;;
7289;SDS011;63176;52.678;13.250;2023-07-28T05:21:08;4.90;;;4.10;;
7289;SDS011;63176;52.678;13.250;2023-07-28T05:23:33;5.03;;;4.17;;
7289;SDS011;63176;52.678;13.250;2023-07-28T05:25:59;4.80;;;4.23;;
7289;SDS011;63176;52.678;13.250;2023-07-28T05:28:25;6.57;;;4.30;;
7289;SDS011;63176;52.678;13.250;2023-07-28T05:30:50;7.47;;;4.17;;
7289;SDS011;63176;52.678;13.250;2023-07-28T05:33:16;4.90;;;3.93;;
7289;SDS011;63176;52.678;13.250;2023-07-28T05:35:42;4.93;;;4.43;;
7289;SDS011;63176;52.678;13.250;2023-07-28T05:38:07;5.43;;;4.60;;
7289;SDS011;63176;52.678;13.250;2023-07-28T05:40:33;6.73;;;5.10;;
7289;SDS011;63176;52.678;13.250;2023-07-28T05:42:59;14.23;;;5.60;;
7289;SDS011;63176;52.678;13.250;2023-07-28T05:45:24;5.67;;;4.53;;
7289;SDS011;63176;52.678;13.250;2023-07-28T05:47:50;5.20;;;3.70;;
7289;SDS011;63176;52.678;13.250;2023-07-28T05:50:16;4.73;;;4.23;;
7289;SDS011;63176;52.678;13.250;2023-07-28T05:52:41;4.37;;;3.97;;
7289;SDS011;63176;52.678;13.250;2023-07-28T05:55:07;4.20;;;3.73;;
7289;SDS011;63176;52.678;13.250;2023-07-28T05:57:33;3.80;;;3.43;;
7289;SDS011;63176;52.678;13.250;2023-07-28T05:59:59;5.50;;;3.93;;
7289;SDS011;63176;52.678;13.250;2023-07-28T06:02:25;9.13;;;3.67;;
7289;SDS011;63176;52.678;13.250;2023-07-28T06:04:50;5.43;;;3.80;;
7289;SDS011;63176;52.678;13.250;2023-07-28T06:07:17;4.07;;;3.67;;
7289;SDS011;63176;52.678;13.250;2023-07-28T06:09:42;4.23;;;3.83;;
7289;SDS011;63176;52.678;13.250;2023-07-28T06:12:08;5.03;;;3.97;;
7289;SDS011;63176;52.678;13.250;2023-07-28T06:14:34;10.00;;;3.87;;
7289;SDS011;63176;52.678;13.250;2023-07-28T06:17:00;3.60;;;2.90;;
7289;SDS011;63176;52.678;13.250;2023-07-28T06:19:26;4.70;;;3.50;;
7289;SDS011;63176;52.678;13.250;2023-07-28T06:21:51;4.30;;;3.53;;
7289;SDS011;63176;52.678;13.250;2023-07-28T06:24:17;5.80;;;4.10;;
7289;SDS011;63176;52.678;13.250;2023-07-28T06:26:43;6.40;;;3.50;;
7289;SDS011;63176;52.678;13.250;2023-07-28T06:29:09;4.33;;;3.60;;
7289;SDS011;63176;52.678;13.250;2023-07-28T06:31:35;4.17;;;3.60;;
7289;SDS011;63176;52.678;13.250;2023-07-28T06:34:01;5.13;;;4.13;;
7289;SDS011;63176;52.678;13.250;2023-07-28T06:36:26;4.47;;;3.27;;
7289;SDS011;63176;52.678;13.250;2023-07-28T06:38:52;4.20;;;3.73;;
7289;SDS011;63176;52.678;13.250;2023-07-28T06:41:20;7.20;;;4.20;;
7289;SDS011;63176;52.678;13.250;2023-07-28T06:43:46;5.43;;;3.20;;
7289;SDS011;63176;52.678;13.250;2023-07-28T06:46:13;4.13;;;2.90;;
7289;SDS011;63176;52.678;13.250;2023-07-28T06:48:39;3.43;;;3.13;;
7289;SDS011;63176;52.678;13.250;2023-07-28T06:51:05;3.93;;;3.63;;
7289;SDS011;63176;52.678;13.250;2023-07-28T06:53:31;4.50;;;3.63;;
7289;SDS011;63176;52.678;13.250;2023-07-28T06:55:57;3.70;;;3.30;;
7289;SDS011;63176;52.678;13.250;2023-07-28T06:58:23;5.50;;;3.47;;
7289;SDS011;63176;52.678;13.250;2023-07-28T07:00:49;3.57;;;3.27;;
7289;SDS011;63176;52.678;13.250;2023-07-28T07:03:14;3.20;;;2.90;;
7289;SDS011;63176;52.678;13.250;2023-07-28T07:05:40;3.40;;;3.13;;
7289;SDS011;63176;52.678;13.250;2023-07-28T07:08:06;5.20;;;3.50;;
7289;SDS011;63176;52.678;13.250;2023-07-28T07:10:32;4.80;;;3.50;;
7289;SDS011;63176;52.678;13.250;2023-07-28T07:12:58;3.10;;;2.80;;
7289;SDS011;63176;52.678;13.250;2023-07-28T07:15:23;5.30;;;2.90;;
7289;SDS011;63176;52.678;13.250;2023-07-28T07:17:49;3.40;;;2.93;;
7289;SDS011;63176;52.678;13.250;2023-07-28T07:20:15;3.47;;;3.27;;
7289;SDS011;63176;52.678;13.250;2023-07-28T07:22:41;6.30;;;3.60;;
7289;SDS011;63176;52.678;13.250;2023-07-28T07:25:06;5.63;;;3.33;;
7289;SDS011;63176;52.678;13.250;2023-07-28T07:27:32;6.00;;;3.07;;
7289;SDS011;63176;52.678;13.250;2023-07-28T07:29:58;3.53;;;3.23;;
7289;SDS011;63176;52.678;13.250;2023-07-28T07:32:24;4.20;;;3.10;;
7289;SDS011;63176;52.678;13.250;2023-07-28T07:34:49;5.80;;;3.20;;
7289;SDS011;63176;52.678;13.250;2023-07-28T07:37:15;7.40;;;3.33;;
7289;SDS011;63176;52.678;13.250;2023-07-28T07:39:41;4.03;;;3.27;;
7289;SDS011;63176;52.678;13.250;2023-07-28T07:42:09;5.77;;;3.23;;
7289;SDS011;63176;52.678;13.250;2023-07-28T07:44:36;3.30;;;3.00;;
7289;SDS011;63176;52.678;13.250;2023-07-28T07:47:10;5.47;;;3.50;;
7289;SDS011;63176;52.678;13.250;2023-07-28T07:49:40;3.40;;;2.93;;
7289;SDS011;63176;52.678;13.250;2023-07-28T07:52:07;3.30;;;3.00;;
7289;SDS011;63176;52.678;13.250;2023-07-28T07:54:34;3.27;;;2.97;;
7289;SDS011;63176;52.678;13.250;2023-07-28T07:57:00;3.17;;;2.87;;
7289;SDS011;63176;52.678;13.250;2023-07-28T07:59:25;5.93;;;2.47;;
7289;SDS011;63176;52.678;13.250;2023-07-28T08:01:53;2.77;;;2.57;;
7289;SDS011;63176;52.678;13.250;2023-07-28T08:04:19;2.27;;;2.10;;
7289;SDS011;63176;52.678;13.250;2023-07-28T08:06:45;5.77;;;3.10;;
7289;SDS011;63176;52.678;13.250;2023-07-28T08:09:11;2.40;;;2.20;;
7289;SDS011;63176;52.678;13.250;2023-07-28T08:11:37;2.20;;;2.10;;
7289;SDS011;63176;52.678;13.250;2023-07-28T08:14:02;2.40;;;2.20;;
7289;SDS011;63176;52.678;13.250;2023-07-28T08:16:28;3.70;;;2.70;;
7289;SDS011;63176;52.678;13.250;2023-07-28T08:18:54;3.50;;;2.50;;
7289;SDS011;63176;52.678;13.250;2023-07-28T08:21:19;2.47;;;2.20;;
7289;SDS011;63176;52.678;13.250;2023-07-28T08:23:45;1.50;;;1.40;;
7289;SDS011;63176;52.678;13.250;2023-07-28T08:26:11;1.90;;;1.80;;
7289;SDS011;63176;52.678;13.250;2023-07-28T08:28:36;1.60;;;1.50;;
7289;SDS011;63176;52.678;13.250;2023-07-28T08:31:02;1.73;;;1.63;;
7289;SDS011;63176;52.678;13.250;2023-07-28T08:33:29;4.13;;;1.90;;
7289;SDS011;63176;52.678;13.250;2023-07-28T08:35:54;4.60;;;1.70;;
7289;SDS011;63176;52.678;13.250;2023-07-28T08:38:20;3.33;;;1.70;;
7289;SDS011;63176;52.678;13.250;2023-07-28T08:40:46;2.10;;;2.00;;
7289;SDS011;63176;52.678;13.250;2023-07-28T08:43:12;2.23;;;2.00;;
7289;SDS011;63176;52.678;13.250;2023-07-28T08:45:37;6.57;;;2.10;;
7289;SDS011;63176;52.678;13.250;2023-07-28T08:48:03;1.77;;;1.67;;
7289;SDS011;63176;52.678;13.250;2023-07-28T08:50:30;1.90;;;1.80;;
7289;SDS011;63176;52.678;13.250;2023-07-28T08:52:56;1.90;;;1.80;;
7289;SDS011;63176;52.678;13.250;2023-07-28T08:55:22;1.90;;;1.80;;
7289;SDS011;63176;52.678;13.250;2023-07-28T08:57:48;2.80;;;2.13;;
7289;SDS011;63176;52.678;13.250;2023-07-28T09:00:13;1.60;;;1.50;;
7289;SDS011;63176;52.678;13.250;2023-07-28T09:02:40;3.90;;;1.90;;
7289;SDS011;63176;52.678;13.250;2023-07-28T09:05:06;3.63;;;1.83;;
7289;SDS011;63176;52.678;13.250;2023-07-28T09:07:42;1.90;;;1.80;;
7289;SDS011;63176;52.678;13.250;2023-07-28T09:10:08;2.43;;;1.60;;
7289;SDS011;63176;52.678;13.250;2023-07-28T09:12:34;2.37;;;2.17;;
7289;SDS011;63176;52.678;13.250;2023-07-28T09:15:00;1.90;;;1.60;;
7289;SDS011;63176;52.678;13.250;2023-07-28T09:17:26;1.87;;;1.77;;
7289;SDS011;63176;52.678;13.250;2023-07-28T09:19:52;2.33;;;2.13;;
7289;SDS011;63176;52.678;13.250;2023-07-28T09:22:20;1.80;;;1.70;;
7289;SDS011;63176;52.678;13.250;2023-07-28T09:24:46;2.07;;;1.97;;
7289;SDS011;63176;52.678;13.250;2023-07-28T09:27:23;1.80;;;1.70;;
7289;SDS011;63176;52.678;13.250;2023-07-28T09:29:51;1.97;;;1.87;;
7289;SDS011;63176;52.678;13.250;2023-07-28T09:32:26;2.47;;;2.27;;
7289;SDS011;63176;52.678;13.250;2023-07-28T09:35:07;2.03;;;1.93;;
7289;SDS011;63176;52.678;13.250;2023-07-28T09:37:38;2.40;;;2.20;;
7289;SDS011;63176;52.678;13.250;2023-07-28T09:40:06;2.67;;;2.47;;
7289;SDS011;63176;52.678;13.250;2023-07-28T09:42:37;2.13;;;2.00;;
7289;SDS011;63176;52.678;13.250;2023-07-28T09:45:04;2.37;;;1.97;;
7289;SDS011;63176;52.678;13.250;2023-07-28T09:47:32;3.57;;;2.17;;
7289;SDS011;63176;52.678;13.250;2023-07-28T09:50:04;2.83;;;2.20;;
7289;SDS011;63176;52.678;13.250;2023-07-28T09:52:36;1.60;;;1.50;;
7289;SDS011;63176;52.678;13.250;2023-07-28T09:55:05;1.60;;;1.50;;
7289;SDS011;63176;52.678;13.250;2023-07-28T09:57:36;2.10;;;1.90;;
7289;SDS011;63176;52.678;13.250;2023-07-28T10:00:10;2.00;;;1.73;;
7289;SDS011;63176;52.678;13.250;2023-07-28T10:02:37;3.63;;;1.80;;
7289;SDS011;63176;52.678;13.250;2023-07-28T10:05:07;1.70;;;1.60;;
7289;SDS011;63176;52.678;13.250;2023-07-28T10:07:34;1.00;;;1.00;;
7289;SDS011;63176;52.678;13.250;2023-07-28T10:10:01;1.37;;;0.90;;
7289;SDS011;63176;52.678;13.250;2023-07-28T10:12:51;0.90;;;0.80;;
7289;SDS011;63176;52.678;13.250;2023-07-28T10:15:21;1.07;;;0.63;;
7289;SDS011;63176;52.678;13.250;2023-07-28T10:17:54;1.40;;;0.70;;
7289;SDS011;63176;52.678;13.250;2023-07-28T10:20:35;1.33;;;0.63;;
7289;SDS011;63176;52.678;13.250;2023-07-28T10:23:13;1.00;;;0.90;;
7289;SDS011;63176;52.678;13.250;2023-07-28T10:25:45;2.03;;;1.10;;
7289;SDS011;63176;52.678;13.250;2023-07-28T10:30:57;1.20;;;1.00;;
7289;SDS011;63176;52.678;13.250;2023-07-28T10:36:09;1.03;;;0.93;;
7289;SDS011;63176;52.678;13.250;2023-07-28T10:38:38;2.73;;;0.73;;
7289;SDS011;63176;52.678;13.250;2023-07-28T10:41:12;1.00;;;0.90;;
7289;SDS011;63176;52.678;13.250;2023-07-28T10:43:39;1.73;;;1.13;;
7289;SDS011;63176;52.678;13.250;2023-07-28T10:46:10;1.23;;;1.07;;
7289;SDS011;63176;52.678;13.250;2023-07-28T10:48:40;1.03;;;1.00;;
7289;SDS011;63176;52.678;13.250;2023-07-28T10:51:08;1.33;;;1.23;;
7289;SDS011;63176;52.678;13.250;2023-07-28T10:53:34;2.37;;;1.10;;
7289;SDS011;63176;52.678;13.250;2023-07-28T10:56:01;3.97;;;1.50;;
7289;SDS011;63176;52.678;13.250;2023-07-28T10:58:28;1.40;;;1.30;;
7289;SDS011;63176;52.678;13.250;2023-07-28T11:00:56;1.43;;;1.33;;
7289;SDS011;63176;52.678;13.250;2023-07-28T11:03:22;2.07;;;1.87;;
7289;SDS011;63176;52.678;13.250;2023-07-28T11:05:48;1.50;;;1.40;;
7289;SDS011;63176;52.678;13.250;2023-07-28T11:08:14;1.70;;;1.60;;
7289;SDS011;63176;52.678;13.250;2023-07-28T11:10:40;3.43;;;1.53;;
7289;SDS011;63176;52.678;13.250;2023-07-28T11:13:07;1.80;;;1.70;;
7289;SDS011;63176;52.678;13.250;2023-07-28T11:15:32;1.40;;;1.30;;
7289;SDS011;63176;52.678;13.250;2023-07-28T11:17:58;1.50;;;1.30;;
7289;SDS011;63176;52.678;13.250;2023-07-28T11:20:25;1.83;;;1.40;;
7289;SDS011;63176;52.678;13.250;2023-07-28T11:25:29;2.80;;;1.07;;
7289;SDS011;63176;52.678;13.250;2023-07-28T11:27:57;1.60;;;1.00;;
7289;SDS011;63176;52.678;13.250;2023-07-28T11:30:26;1.10;;;1.00;;
7289;SDS011;63176;52.678;13.250;2023-07-28T11:32:52;0.90;;;0.80;;
7289;SDS011;63176;52.678;13.250;2023-07-28T11:35:19;1.90;;;1.10;;
7289;SDS011;63176;52.678;13.250;2023-07-28T11:37:47;1.20;;;1.10;;
7289;SDS011;63176;52.678;13.250;2023-07-28T11:40:16;2.40;;;0.93;;
7289;SDS011;63176;52.678;13.250;2023-07-28T11:42:53;1.33;;;1.23;;
7289;SDS011;63176;52.678;13.250;2023-07-28T11:45:21;1.80;;;1.10;;
7289;SDS011;63176;52.678;13.250;2023-07-28T11:48:01;0.83;;;0.83;;
7289;SDS011;63176;52.678;13.250;2023-07-28T11:50:38;1.40;;;1.30;;
7289;SDS011;63176;52.678;13.250;2023-07-28T11:53:04;2.37;;;1.57;;
7289;SDS011;63176;52.678;13.250;2023-07-28T11:55:31;2.30;;;1.50;;
7289;SDS011;63176;52.678;13.250;2023-07-28T11:57:58;2.10;;;1.50;;
7289;SDS011;63176;52.678;13.250;2023-07-28T12:00:30;1.50;;;1.37;;
7289;SDS011;63176;52.678;13.250;2023-07-28T12:05:28;3.80;;;1.53;;
7289;SDS011;63176;52.678;13.250;2023-07-28T12:07:54;1.70;;;1.60;;
7289;SDS011;63176;52.678;13.250;2023-07-28T12:10:20;3.73;;;1.37;;
7289;SDS011;63176;52.678;13.250;2023-07-28T12:12:46;1.70;;;1.60;;
7289;SDS011;63176;52.678;13.250;2023-07-28T12:20:54;1.90;;;1.80;;
7289;SDS011;63176;52.678;13.250;2023-07-28T12:23:20;2.30;;;2.10;;
7289;SDS011;63176;52.678;13.250;2023-07-28T12:25:47;3.30;;;1.90;;
7289;SDS011;63176;52.678;13.250;2023-07-28T12:28:13;1.93;;;1.80;;
7289;SDS011;63176;52.678;13.250;2023-07-28T12:30:39;2.60;;;1.50;;
7289;SDS011;63176;52.678;13.250;2023-07-28T12:33:05;1.57;;;1.47;;
7289;SDS011;63176;52.678;13.250;2023-07-28T12:35:32;2.67;;;1.60;;
7289;SDS011;63176;52.678;13.250;2023-07-28T12:38:02;1.50;;;1.40;;
7289;SDS011;63176;52.678;13.250;2023-07-28T12:40:32;1.03;;;1.03;;
7289;SDS011;63176;52.678;13.250;2023-07-28T12:42:59;1.53;;;1.43;;
7289;SDS011;63176;52.678;13.250;2023-07-28T12:45:26;1.40;;;1.30;;
7289;SDS011;63176;52.678;13.250;2023-07-28T12:47:52;1.30;;;1.20;;
7289;SDS011;63176;52.678;13.250;2023-07-28T12:50:19;1.30;;;1.20;;
7289;SDS011;63176;52.678;13.250;2023-07-28T12:52:49;1.50;;;1.40;;
7289;SDS011;63176;52.678;13.250;2023-07-28T12:55:15;2.27;;;1.90;;
7289;SDS011;63176;52.678;13.250;2023-07-28T12:57:41;1.67;;;1.57;;
7289;SDS011;63176;52.678;13.250;2023-07-28T13:00:07;1.70;;;1.47;;
7289;SDS011;63176;52.678;13.250;2023-07-28T13:02:40;2.00;;;1.90;;
7289;SDS011;63176;52.678;13.250;2023-07-28T13:05:10;2.03;;;1.93;;
7289;SDS011;63176;52.678;13.250;2023-07-28T13:07:37;1.77;;;1.67;;
7289;SDS011;63176;52.678;13.250;2023-07-28T13:10:03;1.87;;;1.77;;
7289;SDS011;63176;52.678;13.250;2023-07-28T13:12:31;1.80;;;1.70;;
7289;SDS011;63176;52.678;13.250;2023-07-28T13:14:56;1.80;;;1.70;;
7289;SDS011;63176;52.678;13.250;2023-07-28T13:17:22;2.13;;;2.03;;
7289;SDS011;63176;52.678;13.250;2023-07-28T13:19:48;3.23;;;1.73;;
7289;SDS011;63176;52.678;13.250;2023-07-28T13:22:13;2.17;;;1.80;;
7289;SDS011;63176;52.678;13.250;2023-07-28T13:24:39;1.87;;;1.77;;
7289;SDS011;63176;52.678;13.250;2023-07-28T13:27:06;1.67;;;1.57;;
7289;SDS011;63176;52.678;13.250;2023-07-28T13:29:32;1.63;;;1.53;;
7289;SDS011;63176;52.678;13.250;2023-07-28T13:31:58;3.10;;;1.53;;
7289;SDS011;63176;52.678;13.250;2023-07-28T13:34:25;1.60;;;1.50;;
7289;SDS011;63176;52.678;13.250;2023-07-28T13:36:52;1.70;;;1.60;;
7289;SDS011;63176;52.678;13.250;2023-07-28T13:39:19;1.20;;;1.10;;
7289;SDS011;63176;52.678;13.250;2023-07-28T13:41:44;1.50;;;1.40;;
7289;SDS011;63176;52.678;13.250;2023-07-28T13:44:10;1.80;;;1.30;;
7289;SDS011;63176;52.678;13.250;2023-07-28T13:46:36;1.30;;;1.20;;
7289;SDS011;63176;52.678;13.250;2023-07-28T13:49:02;5.53;;;1.20;;
7289;SDS011;63176;52.678;13.250;2023-07-28T13:51:27;1.33;;;1.23;;
7289;SDS011;63176;52.678;13.250;2023-07-28T13:53:53;1.40;;;1.30;;
7289;SDS011;63176;52.678;13.250;2023-07-28T13:56:19;1.67;;;1.17;;
7289;SDS011;63176;52.678;13.250;2023-07-28T13:58:45;1.33;;;1.23;;
7289;SDS011;63176;52.678;13.250;2023-07-28T14:01:10;1.50;;;1.40;;
7289;SDS011;63176;52.678;13.250;2023-07-28T14:03:36;1.33;;;1.23;;
7289;SDS011;63176;52.678;13.250;2023-07-28T14:06:02;1.53;;;1.33;;
7289;SDS011;63176;52.678;13.250;2023-07-28T14:08:28;1.40;;;1.30;;
7289;SDS011;63176;52.678;13.250;2023-07-28T14:10:54;1.10;;;1.00;;
7289;SDS011;63176;52.678;13.250;2023-07-28T14:13:20;1.30;;;1.20;;
7289;SDS011;63176;52.678;13.250;2023-07-28T14:15:46;1.20;;;1.10;;
7289;SDS011;63176;52.678;13.250;2023-07-28T14:18:12;1.40;;;1.30;;
7289;SDS011;63176;52.678;13.250;2023-07-28T14:20:38;1.27;;;1.07;;
7289;SDS011;63176;52.678;13.250;2023-07-28T14:23:19;1.10;;;1.00;;
7289;SDS011;63176;52.678;13.250;2023-07-28T14:25:49;2.20;;;0.87;;
7289;SDS011;63176;52.678;13.250;2023-07-28T14:28:15;1.47;;;1.37;;
7289;SDS011;63176;52.678;13.250;2023-07-28T14:30:41;1.10;;;1.10;;
7289;SDS011;63176;52.678;13.250;2023-07-28T14:33:12;1.37;;;1.27;;
7289;SDS011;63176;52.678;13.250;2023-07-28T14:35:39;1.00;;;1.00;;
7289;SDS011;63176;52.678;13.250;2023-07-28T14:38:04;1.63;;;1.10;;
7289;SDS011;63176;52.678;13.250;2023-07-28T14:40:30;1.13;;;1.07;;
7289;SDS011;63176;52.678;13.250;2023-07-28T14:42:56;1.33;;;0.90;;
7289;SDS011;63176;52.678;13.250;2023-07-28T14:45:22;0.70;;;0.70;;
7289;SDS011;63176;52.678;13.250;2023-07-28T14:47:47;2.03;;;0.80;;
7289;SDS011;63176;52.678;13.250;2023-07-28T14:50:13;1.00;;;0.83;;
7289;SDS011;63176;52.678;13.250;2023-07-28T14:52:39;0.70;;;0.70;;
7289;SDS011;63176;52.678;13.250;2023-07-28T14:55:04;0.83;;;0.83;;
7289;SDS011;63176;52.678;13.250;2023-07-28T14:57:30;0.70;;;0.70;;
7289;SDS011;63176;52.678;13.250;2023-07-28T14:59:56;0.87;;;0.87;;
7289;SDS011;63176;52.678;13.250;2023-07-28T15:02:21;1.53;;;0.97;;
7289;SDS011;63176;52.678;13.250;2023-07-28T15:04:47;1.10;;;1.00;;